CheckWX is a tool to help pilots better visualize weather data.  It is not intended as a substitute for an official pre-flight weather briefing.

02:57:39 UTC

4I3 METAR
Knox County Airport
Mount Vernon, Ohio, USA
Current

23 mins ago

K4I3 230235Z AUTO 31004KT 10SM SCT040 BKN047 BKN085 19/19 A2999 RMK AO2
Observed
Jul-23 @ 02:35 UTC
Wind
  • 310° at 4 KTS
Visibility
10 SM
Flight Rules
VFR
Cloud Levels
  • Scattered at 4,000' AGL
  • Broken at 4,700' AGL
  • Broken at 8,500' AGL
Temperature
19°C / 66°F
Dewpoint
19°C / 66°F
Humidity
100%
Altimeter
29.99" Hg
Pressure
1015.62 hPa
Previous

43 mins ago

K4I3 230215Z AUTO 31003KT 10SM SCT034 SCT039 BKN047 19/19 A3000 RMK AO2
Observed
Jul-23 @ 02:15 UTC
Wind
  • 310° at 3 KTS
Visibility
10 SM
Flight Rules
VFR
Cloud Levels
  • Scattered at 3,400' AGL
  • Scattered at 3,900' AGL
  • Broken at 4,700' AGL
Temperature
19°C / 66°F
Dewpoint
19°C / 66°F
Humidity
100%
Altimeter
30" Hg
Pressure
1015.92 hPa
Previous

1 hour ago

K4I3 230156Z AUTO 32003KT 10SM CLR 19/19 A2998 RMK AO2
Observed
Jul-23 @ 01:56 UTC
Wind
  • 320° at 3 KTS
Visibility
10 SM
Flight Rules
VFR
Cloud Levels
  • Clear skies
Temperature
19°C / 66°F
Dewpoint
19°C / 66°F
Humidity
100%
Altimeter
29.98" Hg
Pressure
1015.22 hPa